Flight Track Log - Related Links

Times and Time Zones

All times are in EDT time to prevent confusion due to time zone crossing. See the CTL78 flight status page for this flight to view local times or setup timezone preferences in your user account.

Time Position Orientation Groundspeed Altitude Reporting Facility
EDT Latitude Longitude Course Direction KTS MPH feet Rate Location/Type
Fri 05:57:02 PM 42.2631 -83.5714 297° West 124 143 2,300  Level Cleveland Center
Fri 05:57:58 PM 42.2722 -83.6111 287° West 113 130 3,500 1,179 Climbing Cleveland Center
Fri 05:58:59 PM 42.2906 -83.6317 320° Northwest 114 131 4,600 750 Climbing Cleveland Center
Fri 06:00:06 PM 42.2753 -83.5803 112° Southeast 164 189 5,100 234 Climbing Cleveland Center
Fri 06:01:07 PM 42.2456 -83.5200 124° Southeast 188 216 5,100 -49 Level Cleveland Center
Fri 06:02:08 PM 42.2219 -83.4600 118° Southeast 174 200 5,000  Descending Cleveland Center
Fri 06:03:09 PM 42.2006 -83.4003 116° Southeast 176 203 5,100  Climbing Cleveland Center
Fri 06:04:05 PM 42.1789 -83.3458 118° Southeast 176 203 5,000  Descending Cleveland Center
Fri 06:05:06 PM 42.1575 -83.2833 115° Southeast 170 196 5,100 47 Climbing Cleveland Center
Fri 06:06:13 PM 42.1319 -83.2208 119° Southeast 179 206 5,100  Level Cleveland Center
Fri 06:07:15 PM 42.1103 -83.1583 115° Southeast 180 207 5,100 93 Level Cleveland Center
Fri 06:08:22 PM 42.0825 -83.0956 121° Southeast 181 208 5,300 375 Climbing Cleveland Center
Fri 06:09:23 PM 42.0589 -83.0358 118° Southeast 171 197 5,900 541 Climbing Cleveland Center
Fri 06:10:24 PM 42.0350 -82.9792 120° Southeast 173 199 6,400 466 Climbing Cleveland Center
Fri 06:11:19 PM 42.0111 -82.9250 121° Southeast 174 200 6,800 359 Climbing Cleveland Center
Fri 06:12:21 PM 41.9892 -82.8683 118° Southeast 175 201 7,100 146 Climbing Cleveland Center
Fri 06:13:22 PM 41.9633 -82.8117 121° Southeast 188 216 7,100  Level Cleveland Center
Fri 06:14:24 PM 41.9333 -82.7436 121° Southeast 190 219 7,100 -47 Level Cleveland Center
Fri 06:15:31 PM 41.9053 -82.6783 120° Southeast 186 214 7,000  Descending Cleveland Center
Fri 06:16:26 PM 41.8856 -82.6219 115° Southeast 187 215 7,100  Climbing Cleveland Center
Fri 06:17:27 PM 41.8575 -82.5569 120° Southeast 187 215 7,000 -375 Descending Cleveland Center
Fri 06:18:34 PM 41.8294 -82.4808 116° Southeast 207 238 6,300 -661 Descending Cleveland Center
Fri 06:19:34 PM 41.7972 -82.4158 124° Southeast 209 241 5,600 -645 Descending Cleveland Center
Fri 06:20:35 PM 41.7714 -82.3456 116° Southeast 204 235 5,000 -672 Descending Cleveland Center
Fri 06:21:30 PM 41.7492 -82.2836 116° Southeast 207 238 4,300 -517 Descending Cleveland Center
Fri 06:22:31 PM 41.7211 -82.2133 118° Southeast 209 241 4,000 -148 Descending Cleveland Center
Fri 06:23:32 PM 41.6950 -82.1489 118° Southeast 195 224 4,000 -149 Level Cleveland Center
Fri 06:24:32 PM 41.6667 -82.0869 121° Southeast 199 229 3,700 -417 Descending Cleveland Center
Fri 06:25:27 PM 41.6508 -82.0253 109° East 194 223 3,200 -362 Descending Cleveland Center
Fri 06:26:28 PM 41.6556 -81.9617 84° East 175 201 3,000 -49 Descending Cleveland Center
Fri 06:27:29 PM 41.6269 -81.9108 127° Southeast 173 199 3,100 -103 Climbing Cleveland Center
Fri 06:28:24 PM 41.5983 -81.8631 129° Southeast 171 197 2,800 -417 Descending Cleveland Center
Fri 06:29:24 PM 41.5636 -81.8153 134° Southeast 172 198 2,300 -446 Descending Cleveland Center
Fri 06:30:25 PM 41.5328 -81.7703 132° Southeast 172 198 1,900 -443 Descending Cleveland Center
Fri 06:31:26 PM 41.5061 -81.7256 129° Southeast 135 155 1,400 -492 Descending Cleveland Center
Fri 06:33:00 PM 41.5175 -81.6833 116° Southeast  Level Estimated
Fri 06:40:00 PM 41.5175 -81.6833 116° Southeast  Level Estimated

Login

Don't have an account? Register now (free) for customized features, flight alerts, and more!